Decoded Metar for KPVU (PROVO MUNI in UT, USA) (IATA:PVU) | Meteo·Mobile Aviation Weather
aviador You're here:

KPVU Decoded Metar

PROVO MUNI in UT, USA
Report Time2018-08-21 18:56:00
UTC Time2018-08-21 19:56:31
Flight Rules vfr VFR
Wind150° at 15 kt
W.Decomp.*RWY 13: 14.9 kt HW 2.1 kt RCW
RWY 18: 11.1 kt HW 10 kt LCW
W.Rank150° ranks 6
Current wind is above 150° avg. (6.9)
Visibility9999 m
Phenomena:N/A
Clouds:Few 120 Hf
Expected CloudBase > 5,600 ft AGL from Temp-Dew spread
CeilingNone
Temp26°C (ISA +20)
Dew Point12°C (42% RH)
AAT21.2°C
QNH1020 hPa
Density Alt6,729 ft
Elevation4,491 ft
Report Wrong Elevation
Raw Report
KPVU 211856Z 15015KT 10SM FEW120 26/12 A3013 RMK AO2 LTG DSNT SE
AND S SLP145 T02610117=

Extra information for KPVU:More info

Metar Taf Metar & Taf Last 4 Metars F.Rules Stats Wind Profile Meteogram Temp Stats Airport Information Weather charts Add Link Nearby VenuesMetar ALERT Operation Metar Decoded Social comments

AIRNAV info for KPVU